sensor_id;sensor_type;location;lat;lon;timestamp;pressure;altitude;pressure_sealevel;temperature;humidity
67373;BME280;54257;54.496;18.412;2022-10-14T00:01:14;99982.35;;;9.17;71.47
67373;BME280;54257;54.496;18.412;2022-10-14T00:03:59;99977.86;;;9.14;71.60
67373;BME280;54257;54.496;18.412;2022-10-14T00:06:28;99977.82;;;9.12;71.59
67373;BME280;54257;54.496;18.412;2022-10-14T00:08:59;99977.61;;;9.11;71.37
67373;BME280;54257;54.496;18.412;2022-10-14T00:11:30;99976.06;;;9.11;71.51
67373;BME280;54257;54.496;18.412;2022-10-14T00:14:05;99972.98;;;9.10;71.72
67373;BME280;54257;54.496;18.412;2022-10-14T00:16:39;99972.10;;;9.08;71.75
67373;BME280;54257;54.496;18.412;2022-10-14T00:19:06;99970.84;;;9.05;71.72
67373;BME280;54257;54.496;18.412;2022-10-14T00:21:35;99967.54;;;9.03;71.64
67373;BME280;54257;54.496;18.412;2022-10-14T00:24:02;99968.53;;;9.02;71.77
67373;BME280;54257;54.496;18.412;2022-10-14T00:26:36;99968.34;;;9.00;71.79
67373;BME280;54257;54.496;18.412;2022-10-14T00:29:07;99964.39;;;8.98;71.99
67373;BME280;54257;54.496;18.412;2022-10-14T00:31:35;99963.82;;;8.95;72.09
67373;BME280;54257;54.496;18.412;2022-10-14T00:34:02;99962.19;;;8.92;72.25
67373;BME280;54257;54.496;18.412;2022-10-14T00:36:30;99958.41;;;8.90;72.32
67373;BME280;54257;54.496;18.412;2022-10-14T00:38:57;99957.04;;;8.90;72.35
67373;BME280;54257;54.496;18.412;2022-10-14T00:41:31;99953.97;;;8.90;72.47
67373;BME280;54257;54.496;18.412;2022-10-14T00:44:03;99953.98;;;8.90;72.54
67373;BME280;54257;54.496;18.412;2022-10-14T00:46:38;99946.41;;;8.87;72.73
67373;BME280;54257;54.496;18.412;2022-10-14T00:49:33;99945.52;;;8.86;72.59
67373;BME280;54257;54.496;18.412;2022-10-14T00:52:05;99942.44;;;8.85;72.79
67373;BME280;54257;54.496;18.412;2022-10-14T00:54:38;99938.98;;;8.83;72.72
67373;BME280;54257;54.496;18.412;2022-10-14T00:57:08;99937.24;;;8.81;72.64
67373;BME280;54257;54.496;18.412;2022-10-14T00:59:36;99939.27;;;8.80;72.78
67373;BME280;54257;54.496;18.412;2022-10-14T01:02:04;99937.48;;;8.77;72.74
67373;BME280;54257;54.496;18.412;2022-10-14T01:04:31;99936.61;;;8.76;72.85
67373;BME280;54257;54.496;18.412;2022-10-14T01:09:57;99940.94;;;8.72;73.44
67373;BME280;54257;54.496;18.412;2022-10-14T01:26:58;99923.41;;;8.50;74.05
67373;BME280;54257;54.496;18.412;2022-10-14T01:29:41;99919.42;;;8.47;74.25
67373;BME280;54257;54.496;18.412;2022-10-14T01:32:13;99920.39;;;8.46;74.23
67373;BME280;54257;54.496;18.412;2022-10-14T01:34:51;99914.75;;;8.45;74.30
67373;BME280;54257;54.496;18.412;2022-10-14T01:37:23;99912.84;;;8.43;74.17
67373;BME280;54257;54.496;18.412;2022-10-14T01:40:00;99914.02;;;8.43;74.12
67373;BME280;54257;54.496;18.412;2022-10-14T01:42:33;99909.94;;;8.42;74.17
67373;BME280;54257;54.496;18.412;2022-10-14T01:45:12;99907.18;;;8.41;74.03
67373;BME280;54257;54.496;18.412;2022-10-14T01:47:40;99906.17;;;8.41;73.96
67373;BME280;54257;54.496;18.412;2022-10-14T01:50:12;99901.73;;;8.40;73.97
67373;BME280;54257;54.496;18.412;2022-10-14T01:52:52;99898.83;;;8.40;73.86
67373;BME280;54257;54.496;18.412;2022-10-14T01:55:25;99900.35;;;8.40;73.73
67373;BME280;54257;54.496;18.412;2022-10-14T01:57:56;99903.08;;;8.40;73.67
67373;BME280;54257;54.496;18.412;2022-10-14T02:00:24;99901.54;;;8.40;73.63
67373;BME280;54257;54.496;18.412;2022-10-14T02:02:51;99900.64;;;8.38;73.67
67373;BME280;54257;54.496;18.412;2022-10-14T02:08:08;99899.08;;;8.37;73.60
67373;BME280;54257;54.496;18.412;2022-10-14T02:13:59;99893.66;;;8.32;73.49
67373;BME280;54257;54.496;18.412;2022-10-14T02:16:34;99889.55;;;8.31;73.59
67373;BME280;54257;54.496;18.412;2022-10-14T02:22:00;99879.13;;;8.30;73.63
67373;BME280;54257;54.496;18.412;2022-10-14T02:24:40;99882.16;;;8.29;73.75
67373;BME280;54257;54.496;18.412;2022-10-14T02:27:11;99885.72;;;8.28;73.76
67373;BME280;54257;54.496;18.412;2022-10-14T02:29:41;99886.16;;;8.25;73.70
67373;BME280;54257;54.496;18.412;2022-10-14T02:32:13;99885.45;;;8.24;73.92
67373;BME280;54257;54.496;18.412;2022-10-14T02:34:45;99884.20;;;8.21;73.94
67373;BME280;54257;54.496;18.412;2022-10-14T02:37:14;99893.30;;;8.18;74.28
67373;BME280;54257;54.496;18.412;2022-10-14T02:39:46;99889.42;;;8.12;74.77
67373;BME280;54257;54.496;18.412;2022-10-14T02:42:16;99886.09;;;8.08;74.89
67373;BME280;54257;54.496;18.412;2022-10-14T02:44:54;99885.55;;;8.07;74.93
67373;BME280;54257;54.496;18.412;2022-10-14T02:47:22;99879.58;;;8.07;75.40
67373;BME280;54257;54.496;18.412;2022-10-14T02:49:50;99874.59;;;8.05;75.33
67373;BME280;54257;54.496;18.412;2022-10-14T02:52:19;99873.55;;;8.04;75.46
67373;BME280;54257;54.496;18.412;2022-10-14T02:54:46;99870.13;;;8.03;75.31
67373;BME280;54257;54.496;18.412;2022-10-14T02:57:13;99868.94;;;8.03;75.39
67373;BME280;54257;54.496;18.412;2022-10-14T02:59:40;99872.83;;;8.02;75.54
67373;BME280;54257;54.496;18.412;2022-10-14T03:02:07;99872.82;;;8.01;75.49
67373;BME280;54257;54.496;18.412;2022-10-14T03:04:35;99868.38;;;8.01;75.39
67373;BME280;54257;54.496;18.412;2022-10-14T03:07:02;99868.21;;;8.01;75.33
67373;BME280;54257;54.496;18.412;2022-10-14T03:09:29;99867.56;;;8.02;75.20
67373;BME280;54257;54.496;18.412;2022-10-14T03:11:56;99865.70;;;8.02;75.21
67373;BME280;54257;54.496;18.412;2022-10-14T03:14:23;99863.10;;;8.01;75.37
67373;BME280;54257;54.496;18.412;2022-10-14T03:16:50;99861.23;;;8.00;75.12
67373;BME280;54257;54.496;18.412;2022-10-14T03:19:17;99861.39;;;8.00;75.13
67373;BME280;54257;54.496;18.412;2022-10-14T03:21:44;99858.68;;;8.01;75.09
67373;BME280;54257;54.496;18.412;2022-10-14T03:24:11;99853.39;;;8.00;75.04
67373;BME280;54257;54.496;18.412;2022-10-14T03:26:39;99852.20;;;7.99;74.93
67373;BME280;54257;54.496;18.412;2022-10-14T03:29:06;99848.27;;;7.99;74.73
67373;BME280;54257;54.496;18.412;2022-10-14T03:31:33;99841.73;;;7.97;74.65
67373;BME280;54257;54.496;18.412;2022-10-14T03:34:00;99838.98;;;7.96;74.55
67373;BME280;54257;54.496;18.412;2022-10-14T03:36:27;99837.58;;;7.93;74.60
67373;BME280;54257;54.496;18.412;2022-10-14T03:38:54;99836.51;;;7.91;74.70
67373;BME280;54257;54.496;18.412;2022-10-14T03:41:21;99836.77;;;7.89;74.65
67373;BME280;54257;54.496;18.412;2022-10-14T03:43:48;99837.22;;;7.86;74.63
67373;BME280;54257;54.496;18.412;2022-10-14T03:46:15;99837.34;;;7.84;74.74
67373;BME280;54257;54.496;18.412;2022-10-14T03:48:42;99839.52;;;7.82;74.67
67373;BME280;54257;54.496;18.412;2022-10-14T03:51:09;99839.60;;;7.80;74.59
67373;BME280;54257;54.496;18.412;2022-10-14T03:53:36;99854.31;;;7.76;74.72
67373;BME280;54257;54.496;18.412;2022-10-14T03:56:04;99855.78;;;7.68;75.23
67373;BME280;54257;54.496;18.412;2022-10-14T03:58:31;99856.64;;;7.62;75.75
67373;BME280;54257;54.496;18.412;2022-10-14T04:00:58;99856.38;;;7.57;76.45
67373;BME280;54257;54.496;18.412;2022-10-14T04:03:28;99854.05;;;7.54;77.06
67373;BME280;54257;54.496;18.412;2022-10-14T04:05:55;99850.10;;;7.51;77.03
67373;BME280;54257;54.496;18.412;2022-10-14T04:08:22;99849.06;;;7.51;76.74
67373;BME280;54257;54.496;18.412;2022-10-14T04:10:54;99843.13;;;7.52;76.81
67373;BME280;54257;54.496;18.412;2022-10-14T04:13:21;99841.80;;;7.52;76.55
67373;BME280;54257;54.496;18.412;2022-10-14T04:15:48;99835.32;;;7.52;76.48
67373;BME280;54257;54.496;18.412;2022-10-14T04:18:15;99834.34;;;7.53;76.44
67373;BME280;54257;54.496;18.412;2022-10-14T04:20:42;99832.64;;;7.54;76.26
67373;BME280;54257;54.496;18.412;2022-10-14T04:23:12;99828.73;;;7.53;76.17
67373;BME280;54257;54.496;18.412;2022-10-14T04:25:39;99824.98;;;7.53;76.27
67373;BME280;54257;54.496;18.412;2022-10-14T04:28:09;99822.75;;;7.52;76.19
67373;BME280;54257;54.496;18.412;2022-10-14T04:30:35;99824.59;;;7.51;76.16
67373;BME280;54257;54.496;18.412;2022-10-14T04:33:03;99823.03;;;7.50;76.31
67373;BME280;54257;54.496;18.412;2022-10-14T04:35:30;99823.80;;;7.47;76.59
67373;BME280;54257;54.496;18.412;2022-10-14T04:37:57;99825.60;;;7.44;76.87
67373;BME280;54257;54.496;18.412;2022-10-14T04:40:24;99826.14;;;7.40;77.46
67373;BME280;54257;54.496;18.412;2022-10-14T04:42:56;99828.10;;;7.36;77.74
67373;BME280;54257;54.496;18.412;2022-10-14T04:45:25;99827.34;;;7.33;77.87
67373;BME280;54257;54.496;18.412;2022-10-14T04:47:51;99824.54;;;7.30;78.03
67373;BME280;54257;54.496;18.412;2022-10-14T04:50:19;99823.46;;;7.28;78.24
67373;BME280;54257;54.496;18.412;2022-10-14T04:52:47;99824.46;;;7.27;78.45
67373;BME280;54257;54.496;18.412;2022-10-14T04:55:14;99826.27;;;7.25;78.51
67373;BME280;54257;54.496;18.412;2022-10-14T04:57:41;99824.17;;;7.24;78.97
67373;BME280;54257;54.496;18.412;2022-10-14T05:00:12;99819.58;;;7.23;79.11
67373;BME280;54257;54.496;18.412;2022-10-14T05:02:40;99819.23;;;7.22;79.12
67373;BME280;54257;54.496;18.412;2022-10-14T05:05:08;99816.00;;;7.23;78.93
67373;BME280;54257;54.496;18.412;2022-10-14T05:07:35;99814.20;;;7.25;78.75
67373;BME280;54257;54.496;18.412;2022-10-14T05:10:04;99813.27;;;7.28;78.60
67373;BME280;54257;54.496;18.412;2022-10-14T05:12:31;99815.52;;;7.30;78.48
67373;BME280;54257;54.496;18.412;2022-10-14T05:14:58;99815.04;;;7.31;78.75
67373;BME280;54257;54.496;18.412;2022-10-14T05:17:25;99810.43;;;7.30;78.60
67373;BME280;54257;54.496;18.412;2022-10-14T05:19:52;99809.28;;;7.32;78.54
67373;BME280;54257;54.496;18.412;2022-10-14T05:22:19;99809.51;;;7.33;78.70
67373;BME280;54257;54.496;18.412;2022-10-14T05:24:46;99808.99;;;7.33;79.02
67373;BME280;54257;54.496;18.412;2022-10-14T05:27:13;99807.42;;;7.33;79.05
67373;BME280;54257;54.496;18.412;2022-10-14T05:29:40;99809.98;;;7.33;79.22
67373;BME280;54257;54.496;18.412;2022-10-14T05:32:08;99813.92;;;7.33;79.23
67373;BME280;54257;54.496;18.412;2022-10-14T05:34:35;99813.77;;;7.34;79.23
67373;BME280;54257;54.496;18.412;2022-10-14T05:37:02;99819.21;;;7.35;79.27
67373;BME280;54257;54.496;18.412;2022-10-14T05:39:29;99817.50;;;7.34;79.63
67373;BME280;54257;54.496;18.412;2022-10-14T05:41:57;99820.64;;;7.31;79.45
67373;BME280;54257;54.496;18.412;2022-10-14T05:44:24;99823.16;;;7.29;79.49
67373;BME280;54257;54.496;18.412;2022-10-14T05:46:52;99820.59;;;7.29;79.78
67373;BME280;54257;54.496;18.412;2022-10-14T05:49:21;99821.94;;;7.28;79.90
67373;BME280;54257;54.496;18.412;2022-10-14T05:51:49;99823.45;;;7.28;79.86
67373;BME280;54257;54.496;18.412;2022-10-14T05:54:16;99822.46;;;7.29;79.73
67373;BME280;54257;54.496;18.412;2022-10-14T05:56:45;99824.37;;;7.30;79.65
67373;BME280;54257;54.496;18.412;2022-10-14T05:59:12;99827.34;;;7.33;79.59
67373;BME280;54257;54.496;18.412;2022-10-14T06:01:40;99824.48;;;7.35;79.79
67373;BME280;54257;54.496;18.412;2022-10-14T06:04:18;99819.78;;;7.37;79.68
67373;BME280;54257;54.496;18.412;2022-10-14T06:06:45;99818.99;;;7.39;79.73
67373;BME280;54257;54.496;18.412;2022-10-14T06:09:13;99818.40;;;7.42;79.54
67373;BME280;54257;54.496;18.412;2022-10-14T06:11:40;99815.61;;;7.46;79.75
67373;BME280;54257;54.496;18.412;2022-10-14T06:14:08;99818.57;;;7.49;79.79
67373;BME280;54257;54.496;18.412;2022-10-14T06:16:37;99819.53;;;7.52;79.97
67373;BME280;54257;54.496;18.412;2022-10-14T06:19:04;99818.96;;;7.57;79.96
67373;BME280;54257;54.496;18.412;2022-10-14T06:21:32;99813.84;;;7.63;80.09
67373;BME280;54257;54.496;18.412;2022-10-14T06:23:59;99818.13;;;7.71;80.55
67373;BME280;54257;54.496;18.412;2022-10-14T06:26:26;99817.52;;;7.80;81.05
67373;BME280;54257;54.496;18.412;2022-10-14T06:28:53;99818.01;;;7.93;81.95
67373;BME280;54257;54.496;18.412;2022-10-14T06:31:20;99818.75;;;8.09;82.63
67373;BME280;54257;54.496;18.412;2022-10-14T06:33:47;99822.48;;;8.30;83.18
67373;BME280;54257;54.496;18.412;2022-10-14T06:36:15;99818.00;;;8.48;82.96
67373;BME280;54257;54.496;18.412;2022-10-14T06:38:42;99814.84;;;8.67;82.90
67373;BME280;54257;54.496;18.412;2022-10-14T06:41:09;99815.62;;;8.88;82.98
67373;BME280;54257;54.496;18.412;2022-10-14T06:43:37;99817.52;;;9.14;83.06
67373;BME280;54257;54.496;18.412;2022-10-14T06:46:05;99815.97;;;9.40;82.83
67373;BME280;54257;54.496;18.412;2022-10-14T06:48:32;99812.90;;;9.68;82.65
67373;BME280;54257;54.496;18.412;2022-10-14T06:51:00;99812.14;;;9.94;81.89
67373;BME280;54257;54.496;18.412;2022-10-14T06:53:28;99813.77;;;10.09;80.66
67373;BME280;54257;54.496;18.412;2022-10-14T06:56:04;99815.03;;;10.14;79.71
67373;BME280;54257;54.496;18.412;2022-10-14T06:58:32;99817.64;;;10.17;79.14
67373;BME280;54257;54.496;18.412;2022-10-14T07:01:04;99818.73;;;10.21;79.05
67373;BME280;54257;54.496;18.412;2022-10-14T07:03:35;99820.92;;;10.28;79.08
67373;BME280;54257;54.496;18.412;2022-10-14T07:06:08;99821.17;;;10.45;79.60
67373;BME280;54257;54.496;18.412;2022-10-14T07:08:35;99822.83;;;10.64;79.45
67373;BME280;54257;54.496;18.412;2022-10-14T07:11:03;99821.58;;;10.86;79.39
67373;BME280;54257;54.496;18.412;2022-10-14T07:13:32;99816.02;;;11.07;79.09
67373;BME280;54257;54.496;18.412;2022-10-14T07:16:03;99817.72;;;11.35;78.69
67373;BME280;54257;54.496;18.412;2022-10-14T07:18:31;99819.00;;;11.58;77.70
67373;BME280;54257;54.496;18.412;2022-10-14T07:21:02;99817.14;;;11.76;77.14
67373;BME280;54257;54.496;18.412;2022-10-14T07:23:30;99813.70;;;11.92;76.08
67373;BME280;54257;54.496;18.412;2022-10-14T07:25:58;99814.44;;;11.98;75.78
67373;BME280;54257;54.496;18.412;2022-10-14T07:28:26;99811.89;;;12.01;75.26
67373;BME280;54257;54.496;18.412;2022-10-14T07:30:58;99808.82;;;12.03;75.00
67373;BME280;54257;54.496;18.412;2022-10-14T07:33:25;99806.30;;;12.08;74.96
67373;BME280;54257;54.496;18.412;2022-10-14T07:35:52;99805.64;;;12.12;74.51
67373;BME280;54257;54.496;18.412;2022-10-14T07:38:22;99799.98;;;12.10;73.81
67373;BME280;54257;54.496;18.412;2022-10-14T07:41:10;99803.58;;;12.11;74.09
67373;BME280;54257;54.496;18.412;2022-10-14T07:43:45;99799.48;;;12.13;73.80
67373;BME280;54257;54.496;18.412;2022-10-14T07:46:14;99800.55;;;12.16;73.81
67373;BME280;54257;54.496;18.412;2022-10-14T07:48:42;99793.71;;;12.19;73.81
67373;BME280;54257;54.496;18.412;2022-10-14T07:51:09;99793.92;;;12.24;73.63
67373;BME280;54257;54.496;18.412;2022-10-14T07:53:36;99794.48;;;12.30;73.76
67373;BME280;54257;54.496;18.412;2022-10-14T07:56:03;99794.05;;;12.44;74.36
67373;BME280;54257;54.496;18.412;2022-10-14T07:58:30;99791.30;;;12.71;74.60
67373;BME280;54257;54.496;18.412;2022-10-14T08:00:57;99787.29;;;12.94;73.90
67373;BME280;54257;54.496;18.412;2022-10-14T08:03:25;99787.34;;;13.07;72.91
67373;BME280;54257;54.496;18.412;2022-10-14T08:06:01;99783.46;;;13.26;73.02
67373;BME280;54257;54.496;18.412;2022-10-14T08:08:28;99786.11;;;13.54;73.04
67373;BME280;54257;54.496;18.412;2022-10-14T08:11:08;99784.09;;;13.86;72.49
67373;BME280;54257;54.496;18.412;2022-10-14T08:13:36;99783.73;;;14.14;70.97
67373;BME280;54257;54.496;18.412;2022-10-14T08:16:12;99783.38;;;14.42;70.42
67373;BME280;54257;54.496;18.412;2022-10-14T08:18:39;99780.95;;;14.53;69.02
67373;BME280;54257;54.496;18.412;2022-10-14T08:21:09;99786.46;;;14.57;68.35
67373;BME280;54257;54.496;18.412;2022-10-14T08:23:36;99788.16;;;14.57;68.23
67373;BME280;54257;54.496;18.412;2022-10-14T08:26:03;99783.16;;;14.68;68.18
67373;BME280;54257;54.496;18.412;2022-10-14T08:28:30;99781.20;;;14.88;68.29
67373;BME280;54257;54.496;18.412;2022-10-14T08:30:58;99779.91;;;15.04;66.71
67373;BME280;54257;54.496;18.412;2022-10-14T08:33:25;99776.59;;;15.17;66.81
67373;BME280;54257;54.496;18.412;2022-10-14T08:35:52;99772.00;;;15.38;66.88
67373;BME280;54257;54.496;18.412;2022-10-14T08:38:21;99774.64;;;15.55;65.60
67373;BME280;54257;54.496;18.412;2022-10-14T08:41:13;99773.33;;;15.76;65.20
67373;BME280;54257;54.496;18.412;2022-10-14T08:46:37;99768.48;;;16.19;64.22
67373;BME280;54257;54.496;18.412;2022-10-14T08:49:21;99770.19;;;16.37;62.84
67373;BME280;54257;54.496;18.412;2022-10-14T08:52:02;99765.60;;;16.48;62.70
67373;BME280;54257;54.496;18.412;2022-10-14T08:54:35;99770.02;;;16.54;61.14
67373;BME280;54257;54.496;18.412;2022-10-14T08:57:05;99768.05;;;16.60;61.92
67373;BME280;54257;54.496;18.412;2022-10-14T08:59:40;99764.65;;;16.74;61.21
67373;BME280;54257;54.496;18.412;2022-10-14T09:02:30;99770.78;;;16.81;60.58
67373;BME280;54257;54.496;18.412;2022-10-14T09:05:00;99762.63;;;16.99;61.98
67373;BME280;54257;54.496;18.412;2022-10-14T09:07:31;99763.63;;;17.27;60.30
67373;BME280;54257;54.496;18.412;2022-10-14T09:10:10;99759.27;;;17.30;59.24
67373;BME280;54257;54.496;18.412;2022-10-14T09:12:41;99755.13;;;17.17;59.00
67373;BME280;54257;54.496;18.412;2022-10-14T09:17:47;99757.77;;;17.00;60.23
67373;BME280;54257;54.496;18.412;2022-10-14T09:20:21;99752.23;;;17.02;59.73
67373;BME280;54257;54.496;18.412;2022-10-14T09:25:33;99754.92;;;17.20;59.88
67373;BME280;54257;54.496;18.412;2022-10-14T09:28:00;99757.48;;;17.34;58.92
67373;BME280;54257;54.496;18.412;2022-10-14T09:30:33;99757.23;;;17.27;58.35
67373;BME280;54257;54.496;18.412;2022-10-14T09:33:02;99762.55;;;17.18;58.47
67373;BME280;54257;54.496;18.412;2022-10-14T09:35:40;99760.55;;;16.98;58.32
67373;BME280;54257;54.496;18.412;2022-10-14T09:38:09;99764.34;;;16.85;58.76
67373;BME280;54257;54.496;18.412;2022-10-14T09:40:41;99763.55;;;16.79;58.91
67373;BME280;54257;54.496;18.412;2022-10-14T09:48:42;99757.17;;;16.62;60.24
67373;BME280;54257;54.496;18.412;2022-10-14T09:51:21;99759.41;;;16.62;60.42
67373;BME280;54257;54.496;18.412;2022-10-14T09:53:51;99756.86;;;16.59;60.22
67373;BME280;54257;54.496;18.412;2022-10-14T09:56:37;99758.92;;;16.59;60.37
67373;BME280;54257;54.496;18.412;2022-10-14T09:59:17;99763.52;;;16.65;60.60
67373;BME280;54257;54.496;18.412;2022-10-14T10:02:18;99761.34;;;16.76;60.83
67373;BME280;54257;54.496;18.412;2022-10-14T10:04:42;99760.39;;;16.84;60.31
67373;BME280;54257;54.496;18.412;2022-10-14T10:07:33;99760.84;;;16.90;60.21
67373;BME280;54257;54.496;18.412;2022-10-14T10:10:37;99757.90;;;16.90;60.22
67373;BME280;54257;54.496;18.412;2022-10-14T10:12:57;99753.39;;;17.06;60.78
67373;BME280;54257;54.496;18.412;2022-10-14T10:15:24;99754.77;;;17.19;60.26
67373;BME280;54257;54.496;18.412;2022-10-14T10:17:52;99753.30;;;17.25;60.27
67373;BME280;54257;54.496;18.412;2022-10-14T10:20:22;99754.28;;;17.41;60.24
67373;BME280;54257;54.496;18.412;2022-10-14T10:22:55;99756.80;;;17.58;60.21
67373;BME280;54257;54.496;18.412;2022-10-14T10:25:24;99756.11;;;17.68;59.88
67373;BME280;54257;54.496;18.412;2022-10-14T10:27:58;99754.11;;;17.76;59.26
67373;BME280;54257;54.496;18.412;2022-10-14T10:30:28;99754.84;;;17.85;59.48
67373;BME280;54257;54.496;18.412;2022-10-14T10:41:07;99743.98;;;18.68;58.20
67373;BME280;54257;54.496;18.412;2022-10-14T11:01:05;99738.45;;;19.41;55.14
67373;BME280;54257;54.496;18.412;2022-10-14T11:04:28;99734.96;;;19.49;55.13
67373;BME280;54257;54.496;18.412;2022-10-14T11:09:52;99733.49;;;19.53;53.36
67373;BME280;54257;54.496;18.412;2022-10-14T11:15:55;99739.60;;;19.36;52.26
67373;BME280;54257;54.496;18.412;2022-10-14T11:18:47;99740.11;;;19.44;52.44
67373;BME280;54257;54.496;18.412;2022-10-14T11:35:24;99729.88;;;19.52;51.27
67373;BME280;54257;54.496;18.412;2022-10-14T11:38:01;99728.16;;;19.60;51.06
67373;BME280;54257;54.496;18.412;2022-10-14T11:43:25;99725.13;;;19.71;50.39
67373;BME280;54257;54.496;18.412;2022-10-14T11:46:02;99726.92;;;19.61;48.95
67373;BME280;54257;54.496;18.412;2022-10-14T11:48:48;99723.98;;;19.60;49.40
67373;BME280;54257;54.496;18.412;2022-10-14T11:51:33;99723.09;;;19.62;48.72
67373;BME280;54257;54.496;18.412;2022-10-14T12:02:55;99709.94;;;19.61;48.52
67373;BME280;54257;54.496;18.412;2022-10-14T12:05:46;99706.52;;;19.59;48.36
67373;BME280;54257;54.496;18.412;2022-10-14T12:08:40;99705.99;;;19.59;48.79
67373;BME280;54257;54.496;18.412;2022-10-14T12:11:17;99704.05;;;19.61;48.58
67373;BME280;54257;54.496;18.412;2022-10-14T12:13:53;99703.94;;;19.72;49.08
67373;BME280;54257;54.496;18.412;2022-10-14T12:16:22;99700.78;;;19.81;48.54
67373;BME280;54257;54.496;18.412;2022-10-14T12:18:53;99698.59;;;19.79;48.41
67373;BME280;54257;54.496;18.412;2022-10-14T12:21:34;99693.46;;;19.75;48.51
67373;BME280;54257;54.496;18.412;2022-10-14T12:24:14;99698.48;;;19.76;48.76
67373;BME280;54257;54.496;18.412;2022-10-14T12:29:39;99696.89;;;19.84;48.59
67373;BME280;54257;54.496;18.412;2022-10-14T12:34:54;99692.89;;;19.71;48.64
67373;BME280;54257;54.496;18.412;2022-10-14T12:42:37;99686.38;;;19.88;48.51
67373;BME280;54257;54.496;18.412;2022-10-14T12:45:21;99685.49;;;19.89;48.16
67373;BME280;54257;54.496;18.412;2022-10-14T12:48:20;99682.54;;;19.82;47.66
67373;BME280;54257;54.496;18.412;2022-10-14T12:53:34;99678.81;;;19.85;48.44
67373;BME280;54257;54.496;18.412;2022-10-14T12:56:05;99679.25;;;19.89;48.20
67373;BME280;54257;54.496;18.412;2022-10-14T12:58:52;99676.43;;;19.91;48.18
67373;BME280;54257;54.496;18.412;2022-10-14T13:01:21;99674.75;;;19.89;47.84
67373;BME280;54257;54.496;18.412;2022-10-14T13:03:58;99675.59;;;19.83;47.35
67373;BME280;54257;54.496;18.412;2022-10-14T13:06:31;99676.49;;;19.82;48.36
67373;BME280;54257;54.496;18.412;2022-10-14T13:11:43;99673.13;;;19.64;48.19
67373;BME280;54257;54.496;18.412;2022-10-14T13:14:24;99673.48;;;19.55;47.78
67373;BME280;54257;54.496;18.412;2022-10-14T13:17:00;99671.43;;;19.48;47.55
67373;BME280;54257;54.496;18.412;2022-10-14T13:22:02;99671.81;;;19.31;48.57
67373;BME280;54257;54.496;18.412;2022-10-14T13:24:32;99671.02;;;19.28;48.92
67373;BME280;54257;54.496;18.412;2022-10-14T13:32:46;99668.84;;;19.39;49.91
67373;BME280;54257;54.496;18.412;2022-10-14T13:35:42;99668.26;;;19.43;48.65
67373;BME280;54257;54.496;18.412;2022-10-14T13:38:16;99674.39;;;19.32;48.44
67373;BME280;54257;54.496;18.412;2022-10-14T13:40:47;99670.81;;;19.22;48.85
67373;BME280;54257;54.496;18.412;2022-10-14T13:43:25;99668.25;;;19.21;49.45
67373;BME280;54257;54.496;18.412;2022-10-14T13:48:39;99672.41;;;19.14;50.64
67373;BME280;54257;54.496;18.412;2022-10-14T13:51:23;99671.60;;;19.03;50.57
67373;BME280;54257;54.496;18.412;2022-10-14T13:53:57;99676.00;;;18.92;51.10
67373;BME280;54257;54.496;18.412;2022-10-14T13:56:30;99675.80;;;18.78;51.34
67373;BME280;54257;54.496;18.412;2022-10-14T13:58:57;99671.08;;;18.63;50.94
67373;BME280;54257;54.496;18.412;2022-10-14T14:01:37;99668.52;;;18.53;51.52
67373;BME280;54257;54.496;18.412;2022-10-14T14:04:04;99671.74;;;18.47;51.64
67373;BME280;54257;54.496;18.412;2022-10-14T14:06:31;99672.24;;;18.39;51.66
67373;BME280;54257;54.496;18.412;2022-10-14T14:09:01;99671.57;;;18.29;51.65
67373;BME280;54257;54.496;18.412;2022-10-14T14:11:35;99668.88;;;18.16;52.03
67373;BME280;54257;54.496;18.412;2022-10-14T14:14:04;99668.58;;;18.06;52.60
67373;BME280;54257;54.496;18.412;2022-10-14T14:16:35;99668.50;;;17.91;52.25
67373;BME280;54257;54.496;18.412;2022-10-14T14:19:05;99669.73;;;17.80;53.22
67373;BME280;54257;54.496;18.412;2022-10-14T14:21:33;99664.89;;;17.70;52.95
67373;BME280;54257;54.496;18.412;2022-10-14T14:24:00;99664.13;;;17.62;53.33
67373;BME280;54257;54.496;18.412;2022-10-14T14:28:54;99661.94;;;17.49;53.74
67373;BME280;54257;54.496;18.412;2022-10-14T14:31:25;99661.89;;;17.41;54.03
67373;BME280;54257;54.496;18.412;2022-10-14T14:33:56;99662.20;;;17.33;54.48
67373;BME280;54257;54.496;18.412;2022-10-14T14:36:29;99665.28;;;17.24;54.43
67373;BME280;54257;54.496;18.412;2022-10-14T14:38:59;99662.59;;;17.18;54.98
67373;BME280;54257;54.496;18.412;2022-10-14T14:41:29;99658.86;;;17.14;55.20
67373;BME280;54257;54.496;18.412;2022-10-14T14:44:06;99657.88;;;17.11;55.39
67373;BME280;54257;54.496;18.412;2022-10-14T14:46:39;99659.86;;;17.05;55.43
67373;BME280;54257;54.496;18.412;2022-10-14T14:49:13;99659.92;;;17.00;55.60
67373;BME280;54257;54.496;18.412;2022-10-14T14:51:42;99659.65;;;16.96;55.98
67373;BME280;54257;54.496;18.412;2022-10-14T14:54:17;99663.17;;;16.90;56.34
67373;BME280;54257;54.496;18.412;2022-10-14T14:56:54;99663.29;;;16.82;56.22
67373;BME280;54257;54.496;18.412;2022-10-14T14:59:31;99658.90;;;16.74;56.48
67373;BME280;54257;54.496;18.412;2022-10-14T15:02:09;99662.77;;;16.67;56.86
67373;BME280;54257;54.496;18.412;2022-10-14T15:04:38;99662.02;;;16.58;57.03
67373;BME280;54257;54.496;18.412;2022-10-14T15:07:15;99663.48;;;16.50;57.18
67373;BME280;54257;54.496;18.412;2022-10-14T15:09:45;99662.73;;;16.43;57.51
67373;BME280;54257;54.496;18.412;2022-10-14T15:12:37;99663.50;;;16.36;57.75
67373;BME280;54257;54.496;18.412;2022-10-14T15:15:27;99665.30;;;16.29;57.93
67373;BME280;54257;54.496;18.412;2022-10-14T15:20:37;99663.19;;;16.17;58.08
67373;BME280;54257;54.496;18.412;2022-10-14T15:26:00;99665.54;;;16.08;58.27
67373;BME280;54257;54.496;18.412;2022-10-14T15:28:31;99667.52;;;16.01;58.49
67373;BME280;54257;54.496;18.412;2022-10-14T15:30:58;99671.70;;;15.95;58.54